Time;durP1;ratioP1;P1;durP2;ratioP2;P2;SDS_P1;SDS_P2;PMS_P1;PMS_P2;Temp;Humidity;BMP_temperature;BMP_pressure;BME280_temperature;BME280_humidity;BME280_pressure;Samples;Min_cycle;Max_cycle;Signal;HPM_P1;HPM_P2
2022/12/28 00:02:19;;;;;;;5.50;1.90;;;;;;;-145.69;100.00;52697.88;5074568;28;20199;-79
2022/12/28 00:04:46;;;;;;;6.83;1.50;;;;;;;-145.69;100.00;52717.69;5075114;28;20203;-79
2022/12/28 00:07:13;;;;;;;3.60;1.60;;;;;;;-145.69;100.00;52755.31;5074670;28;20219;-79
2022/12/28 00:09:39;;;;;;;2.40;1.40;;;;;;;-145.69;100.00;52703.81;5074854;28;20206;-79
2022/12/28 00:12:07;;;;;;;6.70;1.70;;;;;;;-145.69;100.00;52703.81;5074665;28;20191;-78
2022/12/28 00:14:34;;;;;;;3.67;1.53;;;;;;;-145.69;100.00;52691.94;5074701;28;20205;-79
2022/12/28 00:17:00;;;;;;;6.27;1.73;;;;;;;-145.69;100.00;52670.16;5074717;28;20198;-79
2022/12/28 00:19:26;;;;;;;8.83;1.60;;;;;;;-145.69;100.00;52707.78;5074679;28;20207;-78
2022/12/28 00:21:53;;;;;;;2.73;1.53;;;;;;;-145.69;100.00;52709.78;5074656;28;20646;-78
2022/12/28 00:24:22;;;;;;;4.63;1.70;;;;;;;-145.69;100.00;52711.75;5074539;28;20677;-78
2022/12/28 00:26:49;;;;;;;2.73;1.50;;;;;;;-145.69;100.00;52697.88;5074679;28;20235;-78
2022/12/28 00:29:17;;;;;;;4.10;1.40;;;;;;;-145.69;100.00;52729.56;5074674;28;20199;-78
2022/12/28 00:31:44;;;;;;;3.57;1.43;;;;;;;-145.69;100.00;52737.50;5074533;28;20653;-78
2022/12/28 00:34:11;;;;;;;9.10;1.53;;;;;;;-145.69;100.00;52670.16;5074291;28;20214;-78
2022/12/28 00:36:38;;;;;;;2.00;1.60;;;;;;;-145.69;100.00;52705.81;5074371;28;20202;-78
2022/12/28 00:39:05;;;;;;;6.23;1.73;;;;;;;-145.69;100.00;52705.81;5074244;28;20199;-78
2022/12/28 00:41:31;;;;;;;3.90;1.57;;;;;;;-145.69;100.00;52705.81;5073751;28;20724;-79
2022/12/28 00:43:57;;;;;;;6.87;1.30;;;;;;;-145.69;100.00;52705.81;5074176;28;20248;-78
2022/12/28 00:46:25;;;;;;;3.23;1.43;;;;;;;-145.69;100.00;52695.91;5074230;28;20238;-79
2022/12/28 00:48:53;;;;;;;4.57;1.40;;;;;;;-145.69;100.00;52757.31;5074030;28;20195;-79
2022/12/28 00:51:20;;;;;;;2.17;1.40;;;;;;;-145.69;100.00;52666.19;5074090;28;20198;-78
2022/12/28 00:53:47;;;;;;;1.80;1.27;;;;;;;-145.69;100.00;52680.06;5073951;28;20291;-78
2022/12/28 00:56:15;;;;;;;4.77;1.30;;;;;;;-145.69;100.00;52705.81;5074092;28;20202;-79
2022/12/28 00:58:42;;;;;;;2.27;1.23;;;;;;;-145.69;100.00;52682.03;5073846;28;20547;-78
2022/12/28 01:01:12;;;;;;;4.67;1.33;;;;;;;-145.69;100.00;52689.97;5074037;28;20205;-78
2022/12/28 01:03:40;;;;;;;3.70;1.47;;;;;;;-145.69;100.00;52721.66;5073480;28;20199;-78
2022/12/28 01:06:08;;;;;;;2.57;1.40;;;;;;;-145.69;100.00;52691.94;5073988;28;20229;-79
2022/12/28 01:08:35;;;;;;;3.97;1.40;;;;;;;-145.69;100.00;52682.03;5073636;28;20191;-79
2022/12/28 01:11:07;;;;;;;3.77;1.17;;;;;;;-145.69;100.00;52684.03;5072809;28;20666;-79
2022/12/28 01:13:33;;;;;;;6.87;1.33;;;;;;;-145.69;100.00;52713.72;5072699;28;20226;-79
2022/12/28 01:16:00;;;;;;;6.00;1.20;;;;;;;-145.69;100.00;52691.94;5073781;28;20206;-80
2022/12/28 01:18:26;;;;;;;6.07;1.20;;;;;;;-145.69;100.00;52709.78;5073836;28;20202;-80
2022/12/28 01:20:54;;;;;;;2.80;1.40;;;;;;;-145.69;100.00;52711.75;5073719;28;20206;-80
2022/12/28 01:23:20;;;;;;;1.77;1.23;;;;;;;-145.69;100.00;52686.00;5073260;28;20657;-79
2022/12/28 01:25:47;;;;;;;3.20;1.40;;;;;;;-145.69;100.00;52713.72;5073460;28;20218;-79
2022/12/28 01:28:13;;;;;;;2.27;1.40;;;;;;;-145.69;100.00;52693.94;5073236;28;20199;-79
2022/12/28 01:30:40;;;;;;;6.17;1.37;;;;;;;-145.69;100.00;52727.59;5073268;28;20214;-79
2022/12/28 01:33:06;;;;;;;2.90;1.60;;;;;;;-145.69;100.00;52697.88;5073325;28;20202;-79
2022/12/28 01:35:32;;;;;;;5.50;1.67;;;;;;;-145.69;100.00;52666.19;5073511;28;20561;-79
2022/12/28 01:38:00;;;;;;;3.93;1.50;;;;;;;-145.69;100.00;52684.03;5073599;28;20198;-81
2022/12/28 01:40:27;;;;;;;1.90;1.20;;;;;;;-145.69;100.00;52721.66;5073345;28;20201;-80
2022/12/28 01:42:53;;;;;;;1.47;1.00;;;;;;;-145.69;100.00;52693.94;5072421;28;20265;-79
2022/12/28 01:45:21;;;;;;;1.10;1.03;;;;;;;-145.69;100.00;52672.13;5072925;28;20202;-79
2022/12/28 01:47:51;;;;;;;2.20;1.10;;;;;;;-145.69;100.00;52701.84;5073355;28;20230;-79
2022/12/28 01:50:21;;;;;;;3.60;1.13;;;;;;;-145.69;100.00;52691.94;5072964;28;20197;-79
2022/12/28 01:52:53;;;;;;;1.50;0.93;;;;;;;-145.69;100.00;52721.66;5072951;28;20199;-80
2022/12/28 01:55:22;;;;;;;1.20;1.00;;;;;;;-145.69;100.00;52670.16;5072972;28;20205;-79
2022/12/28 01:57:55;;;;;;;1.67;1.03;;;;;;;-145.69;100.00;52717.69;5069918;28;20202;-78
2022/12/28 02:00:22;;;;;;;4.80;1.00;;;;;;;-145.69;100.00;52658.28;5073364;28;20376;-79
2022/12/28 02:02:53;;;;;;;3.80;1.13;;;;;;;-145.69;100.00;52678.09;5072721;28;20202;-78
2022/12/28 02:05:22;;;;;;;2.40;0.80;;;;;;;-145.69;100.00;52701.84;5073096;28;20213;-79
2022/12/28 02:07:54;;;;;;;4.57;1.00;;;;;;;-145.69;100.00;52666.19;5072848;28;20226;-79
2022/12/28 02:10:22;;;;;;;2.17;0.90;;;;;;;-145.69;100.00;52654.31;5072867;28;20210;-79
2022/12/28 02:12:49;;;;;;;1.00;0.90;;;;;;;-145.69;100.00;52654.31;5071741;28;20203;-79
2022/12/28 02:15:15;;;;;;;3.60;0.70;;;;;;;-145.69;100.00;52693.94;5072690;28;20205;-79
2022/12/28 02:17:42;;;;;;;1.97;0.77;;;;;;;-145.69;100.00;52703.81;5072794;28;20210;-80
2022/12/28 02:20:09;;;;;;;1.57;0.70;;;;;;;-145.69;100.00;52686.00;5072617;28;20199;-79
2022/12/28 02:23:14;;;;;;;1.03;0.80;;;;;;;-145.69;100.00;52670.16;5072781;28;20195;-79
2022/12/28 02:26:15;;;;;;;0.70;0.70;;;;;;;-145.69;100.00;52686.00;5069458;28;20206;-79
2022/12/28 02:29:05;;;;;;;2.83;0.70;;;;;;;-145.69;100.00;52697.88;5076802;28;20438;-79
2022/12/28 02:31:42;;;;;;;1.30;0.90;;;;;;;-145.69;100.00;52662.22;5076778;28;20237;-79
2022/12/28 02:34:16;;;;;;;2.17;0.77;;;;;;;-145.69;100.00;52678.09;5076921;28;20194;-79
2022/12/28 02:36:49;;;;;;;4.57;1.00;;;;;;;-145.69;100.00;52711.75;5076845;28;20205;-78
2022/12/28 02:39:21;;;;;;;1.80;0.80;;;;;;;-145.69;100.00;52670.16;5076073;28;20202;-78
2022/12/28 02:41:48;;;;;;;2.58;0.65;;;;;;;-145.69;100.00;52678.09;5075536;28;20967;-79
2022/12/28 02:50:04;;;;;;;1.73;0.97;;;;;;;-145.69;100.00;52695.91;5076495;28;20202;-79
2022/12/28 02:52:59;;;;;;;1.00;0.70;;;;;;;-145.69;100.00;52687.97;5074329;28;20194;-78
2022/12/28 02:59:04;;;;;;;0.83;0.60;;;;;;;-145.69;100.00;52670.16;5076138;28;20202;-78
2022/12/28 03:01:50;;;;;;;3.40;1.10;;;;;;;-145.69;100.00;52642.44;5075878;28;20203;-78
2022/12/28 03:04:25;;;;;;;0.77;0.60;;;;;;;-145.69;100.00;52660.25;5076361;28;20571;-78
2022/12/28 03:09:51;;;;;;;1.87;0.67;;;;;;;-145.69;100.00;52674.13;5075987;28;20194;-79
2022/12/28 03:12:25;;;;;;;1.90;0.63;;;;;;;-145.69;100.00;52658.28;5075969;28;20195;-78
2022/12/28 03:14:56;;;;;;;3.17;1.73;;;;;;;-145.69;100.00;52674.13;5075440;28;20446;-78
2022/12/28 03:31:22;;;;;;;2.67;0.80;;;;;;;-145.69;100.00;52678.09;5055632;28;20558;-77
2022/12/28 03:34:05;;;;;;;13.27;3.70;;;;;;;-145.69;100.00;52634.50;5071588;28;20195;-79
2022/12/28 03:36:39;;;;;;;11.33;4.23;;;;;;;-145.69;100.00;52672.13;5075527;28;20254;-78
2022/12/28 03:39:12;;;;;;;12.87;4.53;;;;;;;-145.69;100.00;52630.53;5075659;28;20205;-79
2022/12/28 03:41:44;;;;;;;6.00;2.00;;;;;;;-145.69;100.00;52652.34;5074847;28;20228;-79
2022/12/28 03:44:16;;;;;;;2.53;1.63;;;;;;;-145.69;100.00;52630.53;5075099;28;20198;-79
2022/12/28 03:46:49;;;;;;;10.63;3.07;;;;;;;-145.69;100.00;52693.94;5075318;28;20222;-79
2022/12/28 03:49:17;;;;;;;6.67;1.87;;;;;;;-145.69;100.00;52684.03;5075156;28;20214;-79
2022/12/28 03:51:46;;;;;;;7.43;1.80;;;;;;;-145.69;100.00;52664.22;5074879;28;20195;-79
2022/12/28 03:54:14;;;;;;;4.43;1.20;;;;;;;-145.69;100.00;52674.13;5075038;28;20195;-78
2022/12/28 03:56:46;;;;;;;2.63;0.90;;;;;;;-145.69;100.00;52689.97;5071868;28;20211;-79
2022/12/28 03:59:12;;;;;;;4.93;1.63;;;;;;;-145.69;100.00;52693.94;5075511;28;20194;-79
2022/12/28 04:01:39;;;;;;;3.23;1.10;;;;;;;-145.69;100.00;52624.59;5075312;28;20201;-79
2022/12/28 04:04:05;;;;;;;2.63;1.30;;;;;;;-145.69;100.00;52630.53;5075169;28;20195;-79
2022/12/28 04:06:33;;;;;;;1.93;0.83;;;;;;;-145.69;100.00;52652.34;5075082;28;20230;-78
2022/12/28 04:09:00;;;;;;;5.33;0.93;;;;;;;-145.69;100.00;52658.28;5074650;28;20206;-78
2022/12/28 04:11:26;;;;;;;5.13;0.80;;;;;;;-145.69;100.00;52668.19;5074642;28;20198;-78
2022/12/28 04:13:52;;;;;;;2.20;0.70;;;;;;;-145.69;100.00;52652.34;5074449;28;20676;-79
2022/12/28 04:16:19;;;;;;;3.47;1.10;;;;;;;-145.69;100.00;52672.13;5075080;28;20207;-79
2022/12/28 04:18:46;;;;;;;7.40;1.00;;;;;;;-145.69;100.00;52630.53;5074642;28;20661;-79
2022/12/28 04:21:14;;;;;;;3.90;1.00;;;;;;;-145.69;100.00;52642.44;5074550;28;20277;-78
2022/12/28 04:23:42;;;;;;;1.63;0.93;;;;;;;-145.69;100.00;52662.22;5074471;28;20202;-78
2022/12/28 04:26:11;;;;;;;4.93;1.30;;;;;;;-145.69;100.00;52646.41;5074825;28;20226;-78
2022/12/28 04:28:38;;;;;;;3.17;1.17;;;;;;;-145.69;100.00;52630.53;5074651;28;20625;-78
2022/12/28 04:31:05;;;;;;;1.93;0.90;;;;;;;-145.69;100.00;52650.34;5074573;28;20199;-78
2022/12/28 04:33:32;;;;;;;3.17;1.30;;;;;;;-145.69;100.00;52646.41;5074075;28;20346;-78
2022/12/28 04:36:04;;;;;;;1.60;1.10;;;;;;;-145.69;100.00;52642.44;5074444;28;20211;-78
2022/12/28 04:38:30;;;;;;;7.33;1.67;;;;;;;-145.69;100.00;52650.34;5074416;28;20677;-79
2022/12/28 04:40:58;;;;;;;6.33;1.10;;;;;;;-145.69;100.00;52614.72;5074192;28;20194;-78
2022/12/28 04:43:24;;;;;;;3.07;1.10;;;;;;;-145.69;100.00;52642.44;5073912;28;20195;-79
2022/12/28 04:45:56;;;;;;;8.50;1.10;;;;;;;-145.69;100.00;52638.47;5074371;28;20199;-78
2022/12/28 04:48:22;;;;;;;3.67;1.00;;;;;;;-145.69;100.00;52642.44;5073718;28;20266;-78
2022/12/28 04:50:49;;;;;;;3.40;0.82;;;;;;;-145.69;100.00;52660.25;5073663;28;20441;-79
2022/12/28 04:53:15;;;;;;;1.43;0.60;;;;;;;-145.69;100.00;52614.72;5073829;28;20198;-78
2022/12/28 04:55:42;;;;;;;3.57;1.03;;;;;;;-145.69;100.00;52644.41;5073684;28;20205;-77
2022/12/28 04:58:09;;;;;;;2.30;0.77;;;;;;;-145.69;100.00;52638.47;5074062;28;20569;-79
2022/12/28 05:00:36;;;;;;;3.93;1.07;;;;;;;-145.69;100.00;52644.41;5073734;28;20206;-79
2022/12/28 05:03:02;;;;;;;2.60;1.17;;;;;;;-145.69;100.00;52658.28;5073304;28;20207;-78
2022/12/28 05:05:29;;;;;;;3.07;0.90;;;;;;;-145.69;100.00;52672.13;5074081;28;20207;-78
2022/12/28 05:07:59;;;;;;;2.33;0.93;;;;;;;-145.69;100.00;52648.38;5073893;28;20229;-78
2022/12/28 05:10:26;;;;;;;3.90;1.10;;;;;;;-145.69;100.00;52634.50;5073810;28;20657;-77
2022/12/28 05:12:53;;;;;;;1.97;0.97;;;;;;;-145.69;100.00;52650.34;5073353;28;20206;-78
2022/12/28 05:15:22;;;;;;;6.40;1.40;;;;;;;-145.69;100.00;52648.38;5073524;28;20658;-78
2022/12/28 05:17:48;;;;;;;2.07;1.10;;;;;;;-145.69;100.00;52638.47;5073290;28;20198;-76
2022/12/28 05:20:16;;;;;;;3.67;1.20;;;;;;;-145.69;100.00;52652.34;5073242;28;20653;-78
2022/12/28 05:22:43;;;;;;;1.43;1.10;;;;;;;-145.69;100.00;52672.13;5073490;28;20661;-78
2022/12/28 05:25:09;;;;;;;5.13;1.40;;;;;;;-145.69;100.00;52626.59;5073055;28;20202;-79
2022/12/28 05:27:36;;;;;;;3.23;1.20;;;;;;;-145.69;100.00;52630.53;5072996;28;20223;-78
2022/12/28 05:30:02;;;;;;;1.50;1.10;;;;;;;-145.69;100.00;52682.03;5072609;28;20194;-76
2022/12/28 05:32:30;;;;;;;2.60;1.50;;;;;;;-145.69;100.00;52638.47;5073293;28;20202;-77
2022/12/28 05:34:56;;;;;;;2.30;1.50;;;;;;;-145.69;100.00;52678.09;5072959;28;20198;-77
2022/12/28 05:37:23;;;;;;;3.63;1.40;;;;;;;-145.69;100.00;52662.22;5073452;28;20203;-77
2022/12/28 05:39:49;;;;;;;2.27;1.30;;;;;;;-145.69;100.00;52642.44;5073140;28;20202;-78
2022/12/28 05:42:15;;;;;;;7.83;1.50;;;;;;;-145.69;100.00;52662.22;5072453;28;20234;-78
2022/12/28 05:44:42;;;;;;;3.57;1.30;;;;;;;-145.69;100.00;52642.44;5072962;28;20569;-78
2022/12/28 05:47:08;;;;;;;4.50;1.50;;;;;;;-145.69;100.00;52678.09;5072985;28;20234;-77
2022/12/28 05:49:36;;;;;;;3.63;1.50;;;;;;;-145.69;100.00;52646.41;5072815;28;20859;-77
2022/12/28 05:52:03;;;;;;;3.57;1.67;;;;;;;-145.69;100.00;52668.19;5073251;28;20604;-77
2022/12/28 05:54:29;;;;;;;1.43;1.27;;;;;;;-145.69;100.00;52662.22;5073041;28;20210;-78
2022/12/28 05:56:55;;;;;;;6.77;1.67;;;;;;;-145.69;100.00;52678.09;5072798;28;20206;-78
2022/12/28 05:59:22;;;;;;;6.63;1.50;;;;;;;-145.69;100.00;52658.28;5071794;28;20203;-78
2022/12/28 06:01:48;;;;;;;2.37;1.57;;;;;;;-145.69;100.00;52636.50;5069861;28;20199;-78
2022/12/28 06:04:17;;;;;;;1.73;1.30;;;;;;;-145.69;100.00;52662.22;5073174;28;20557;-77
2022/12/28 06:06:46;;;;;;;2.83;1.60;;;;;;;-145.69;100.00;52646.41;5072933;28;20203;-78
2022/12/28 06:09:13;;;;;;;2.47;1.60;;;;;;;-145.69;100.00;52642.44;5072836;28;20596;-78
2022/12/28 06:11:40;;;;;;;4.67;1.77;;;;;;;-145.69;100.00;52678.09;5072200;28;20202;-78
2022/12/28 06:14:06;;;;;;;3.87;1.80;;;;;;;-145.69;100.00;52686.00;5072536;28;20199;-78
2022/12/28 06:16:35;;;;;;;1.63;1.23;;;;;;;-145.69;100.00;52666.19;5072843;28;20211;-77
2022/12/28 06:19:04;;;;;;;2.97;1.77;;;;;;;-145.69;100.00;52654.31;5072581;28;20203;-77
2022/12/28 06:21:33;;;;;;;3.97;1.43;;;;;;;-145.69;100.00;52654.31;5072211;28;20187;-77
2022/12/28 06:24:01;;;;;;;2.77;1.60;;;;;;;-145.69;100.00;52678.09;5072517;28;20210;-78
2022/12/28 06:26:30;;;;;;;3.93;1.50;;;;;;;-145.69;100.00;52666.19;5072837;28;20206;-78
2022/12/28 06:28:58;;;;;;;4.03;1.97;;;;;;;-145.69;100.00;52642.44;5072970;28;20226;-79
2022/12/28 06:31:26;;;;;;;2.23;1.40;;;;;;;-145.69;100.00;52709.78;5072671;28;20206;-79
2022/12/28 06:33:54;;;;;;;3.97;2.13;;;;;;;-145.69;100.00;52684.03;5072721;28;20203;-78
2022/12/28 06:36:24;;;;;;;3.67;1.40;;;;;;;-145.69;100.00;52652.34;5072434;28;20214;-79
2022/12/28 06:38:52;;;;;;;1.90;1.33;;;;;;;-145.69;100.00;52654.31;5072537;28;20210;-78
2022/12/28 06:41:21;;;;;;;2.07;1.30;;;;;;;-145.69;100.00;52632.53;5071807;28;20585;-78
2022/12/28 06:43:49;;;;;;;1.83;1.33;;;;;;;-145.69;100.00;52652.34;5072931;28;20203;-78
2022/12/28 06:46:17;;;;;;;4.10;1.40;;;;;;;-145.69;100.00;52650.34;5072265;28;20584;-78
2022/12/28 06:48:44;;;;;;;2.13;1.33;;;;;;;-145.69;100.00;52666.19;5072180;28;20280;-78
2022/12/28 06:51:13;;;;;;;3.50;1.40;;;;;;;-145.69;100.00;52658.28;5072271;28;20210;-78
2022/12/28 06:53:40;;;;;;;3.43;1.30;;;;;;;-145.69;100.00;52670.16;5072102;28;20191;-78
2022/12/28 06:56:08;;;;;;;2.47;1.40;;;;;;;-145.69;100.00;52674.13;5072378;28;20195;-78
2022/12/28 06:58:36;;;;;;;1.53;1.30;;;;;;;-145.69;100.00;52682.03;5072602;28;20202;-78
2022/12/28 07:01:07;;;;;;;3.30;1.47;;;;;;;-145.69;100.00;52668.19;5072539;28;20577;-77
2022/12/28 07:03:33;;;;;;;3.20;1.50;;;;;;;-145.69;100.00;52678.09;5072204;28;20191;-78
2022/12/28 07:06:00;;;;;;;3.10;1.60;;;;;;;-145.69;100.00;52646.41;5072673;28;20206;-78
2022/12/28 07:08:27;;;;;;;6.20;1.27;;;;;;;-145.69;100.00;52656.28;5071777;28;20238;-78
2022/12/28 07:10:54;;;;;;;2.83;1.70;;;;;;;-145.69;100.00;52654.31;5074800;28;20195;-78
2022/12/28 07:13:20;;;;;;;2.23;1.50;;;;;;;-145.69;100.00;52662.22;5075500;28;20195;-78
2022/12/28 07:15:48;;;;;;;2.83;1.40;;;;;;;-145.69;100.00;52666.19;5075907;28;20202;-78
2022/12/28 07:18:14;;;;;;;3.17;1.53;;;;;;;-145.69;100.00;52686.00;5075549;28;20564;-78
2022/12/28 07:20:41;;;;;;;6.60;1.40;;;;;;;-145.69;100.00;52672.13;5076050;28;20199;-78
2022/12/28 07:23:07;;;;;;;2.80;1.50;;;;;;;-145.69;100.00;52646.41;5075767;28;20206;-78
2022/12/28 07:25:35;;;;;;;3.73;1.60;;;;;;;-145.69;100.00;52674.13;5075992;28;20203;-79
2022/12/28 07:28:01;;;;;;;3.90;1.20;;;;;;;-145.69;100.00;52658.28;5075046;28;20234;-78
2022/12/28 07:30:28;;;;;;;3.03;1.43;;;;;;;-145.69;100.00;52634.50;5075801;28;20580;-78
2022/12/28 07:32:55;;;;;;;4.13;1.57;;;;;;;-145.69;100.00;52638.47;5075903;28;20229;-78
2022/12/28 07:35:22;;;;;;;8.43;3.20;;;;;;;-145.69;100.00;52658.28;5074911;28;20203;-78
2022/12/28 07:37:49;;;;;;;4.47;1.60;;;;;;;-145.69;100.00;52642.44;5074407;28;20556;-78
2022/12/28 07:40:15;;;;;;;3.73;2.00;;;;;;;-145.69;100.00;52646.41;5074225;28;20191;-78
2022/12/28 07:42:42;;;;;;;5.20;1.93;;;;;;;-145.69;100.00;52668.19;5075273;28;20732;-78
2022/12/28 07:45:11;;;;;;;4.23;2.03;;;;;;;-145.69;100.00;52622.63;5075531;28;20199;-78
2022/12/28 07:47:38;;;;;;;2.20;1.57;;;;;;;-145.69;100.00;52626.59;5075109;28;20222;-78
2022/12/28 07:50:06;;;;;;;3.87;2.07;;;;;;;-145.69;100.00;52682.03;5075124;28;20210;-78
2022/12/28 07:52:35;;;;;;;3.10;1.90;;;;;;;-145.69;100.00;52664.22;5075308;28;20225;-78
2022/12/28 07:55:02;;;;;;;3.10;1.50;;;;;;;-145.69;100.00;52650.34;5075119;28;20198;-78
2022/12/28 07:57:28;;;;;;;4.63;1.53;;;;;;;-145.69;100.00;52662.22;5074966;28;20734;-78
2022/12/28 07:59:54;;;;;;;2.43;1.13;;;;;;;-145.69;100.00;52674.13;5075210;28;20206;-78
2022/12/28 08:02:21;;;;;;;2.20;1.27;;;;;;;-145.69;100.00;52642.44;5075099;28;20313;-78
2022/12/28 08:04:47;;;;;;;2.33;1.60;;;;;;;-145.69;100.00;52670.16;5074964;28;20199;-78
2022/12/28 08:07:15;;;;;;;8.90;3.17;;;;;;;-145.69;100.00;52636.50;5075239;28;20207;-78
2022/12/28 08:09:42;;;;;;;3.67;1.57;;;;;;;-145.69;100.00;52654.31;5072007;28;20273;-78
2022/12/28 08:12:08;;;;;;;4.03;1.50;;;;;;;-145.69;100.00;52658.28;5074952;28;20202;-78
2022/12/28 08:14:34;;;;;;;3.43;1.23;;;;;;;-145.69;100.00;52650.34;5074905;28;20198;-78
2022/12/28 08:17:01;;;;;;;4.53;1.27;;;;;;;-145.69;100.00;52642.44;5074672;28;20202;-78
2022/12/28 08:19:27;;;;;;;2.60;1.57;;;;;;;-145.69;100.00;52662.22;5074612;28;20210;-79
2022/12/28 08:21:54;;;;;;;1.60;0.90;;;;;;;-145.69;100.00;52614.72;5074407;28;20226;-78
2022/12/28 08:24:22;;;;;;;5.57;0.97;;;;;;;-145.69;100.00;52610.75;5074961;28;20543;-78
2022/12/28 08:26:49;;;;;;;6.20;1.37;;;;;;;-145.69;100.00;52626.59;5074575;28;20676;-78
2022/12/28 08:29:21;;;;;;;1.83;0.90;;;;;;;-145.69;100.00;52626.59;5074194;28;20222;-78
2022/12/28 08:31:47;;;;;;;3.73;1.10;;;;;;;-145.69;100.00;52614.72;5074736;28;20222;-78
2022/12/28 08:34:15;;;;;;;4.47;1.00;;;;;;;-145.69;100.00;52636.50;5074156;28;20203;-77
2022/12/28 08:36:42;;;;;;;3.77;0.97;;;;;;;-145.69;100.00;52614.72;5069709;28;20198;-76
2022/12/28 08:39:08;;;;;;;3.70;1.13;;;;;;;-145.69;100.00;52632.53;5074012;28;20223;-78
2022/12/28 08:41:36;;;;;;;3.50;1.53;;;;;;;-145.69;100.00;52646.41;5074296;28;20264;-79
2022/12/28 08:44:03;;;;;;;1.53;1.03;;;;;;;-145.69;100.00;52654.31;5074217;28;20226;-79
2022/12/28 08:46:32;;;;;;;3.80;1.40;;;;;;;-145.69;100.00;52642.44;5074364;28;20199;-79
2022/12/28 08:48:59;;;;;;;5.25;1.20;;;;;;;-145.69;100.00;52640.44;5073026;28;20503;-80
2022/12/28 08:51:31;;;;;;;2.13;1.10;;;;;;;-145.69;100.00;52622.63;5074181;28;20599;-79
2022/12/28 08:53:58;;;;;;;3.27;1.03;;;;;;;-145.69;100.00;52614.72;5074083;28;20199;-79
2022/12/28 08:56:26;;;;;;;1.37;0.77;;;;;;;-145.69;100.00;52604.81;5074012;28;20207;-79
2022/12/28 08:58:55;;;;;;;1.07;0.80;;;;;;;-145.69;100.00;52636.50;5073964;28;20199;-80
2022/12/28 09:01:23;;;;;;;2.37;0.90;;;;;;;-145.69;100.00;52652.34;5073789;28;20195;-80
2022/12/28 09:03:52;;;;;;;1.30;1.00;;;;;;;-145.69;100.00;52638.47;5073830;28;20207;-81
2022/12/28 09:06:21;;;;;;;3.43;1.03;;;;;;;-145.69;100.00;52630.53;5073521;28;20199;-80
2022/12/28 09:08:49;;;;;;;2.03;0.93;;;;;;;-145.69;100.00;52650.34;5073360;28;20689;-79
2022/12/28 09:11:15;;;;;;;2.40;0.93;;;;;;;-145.69;100.00;52634.50;5073665;28;20207;-79
2022/12/28 09:13:41;;;;;;;2.87;1.23;;;;;;;-145.69;100.00;52620.66;5073775;28;20194;-80
2022/12/28 09:16:11;;;;;;;1.70;1.23;;;;;;;-145.69;100.00;52626.59;5073854;28;20222;-80
2022/12/28 09:18:38;;;;;;;2.03;1.10;;;;;;;-145.69;100.00;52612.72;5073509;28;20237;-80
2022/12/28 09:21:06;;;;;;;1.17;0.90;;;;;;;-145.69;100.00;52618.66;5073348;28;20561;-80
2022/12/28 09:23:33;;;;;;;4.13;1.23;;;;;;;-145.69;100.00;52602.81;5073510;28;20202;-80
2022/12/28 09:26:04;;;;;;;2.77;0.80;;;;;;;-145.69;100.00;52594.91;5073678;28;20202;-80
2022/12/28 09:28:30;;;;;;;3.07;0.90;;;;;;;-145.69;100.00;52598.84;5073533;28;20222;-80
2022/12/28 09:30:57;;;;;;;1.87;1.10;;;;;;;-145.69;100.00;52590.94;5073217;28;20210;-80
2022/12/28 09:36:09;;;;;;;2.10;1.00;;;;;;;-145.69;100.00;52598.84;5072999;28;20201;-80
2022/12/28 09:38:35;;;;;;;1.13;0.80;;;;;;;-145.69;100.00;52586.97;5073812;28;20203;-80
2022/12/28 09:41:11;;;;;;;3.60;0.97;;;;;;;-145.69;100.00;52594.91;5072927;28;20231;-80
2022/12/28 09:43:40;;;;;;;2.47;1.00;;;;;;;-145.69;100.00;52620.66;5073080;28;20534;-80
2022/12/28 09:46:07;;;;;;;2.20;0.97;;;;;;;-145.69;100.00;52592.91;5073198;28;20206;-81
2022/12/28 09:48:36;;;;;;;1.20;0.70;;;;;;;-145.69;100.00;52594.91;5073177;28;20223;-81
2022/12/28 09:51:03;;;;;;;4.00;1.00;;;;;;;-145.69;100.00;52598.84;5072936;28;20672;-81
2022/12/28 09:53:33;;;;;;;1.83;1.00;;;;;;;-145.69;100.00;52614.72;5072866;28;20285;-80
2022/12/28 09:56:06;;;;;;;4.00;1.00;;;;;;;-145.69;100.00;52598.84;5073173;28;20226;-80
2022/12/28 09:58:36;;;;;;;2.30;0.80;;;;;;;-145.69;100.00;52666.19;5073235;28;20235;-80
2022/12/28 10:01:04;;;;;;;1.17;0.90;;;;;;;-145.69;100.00;52630.53;5072979;28;20620;-79
2022/12/28 10:03:35;;;;;;;1.13;0.60;;;;;;;-145.69;100.00;52573.13;5073022;28;20203;-79
2022/12/28 10:06:03;;;;;;;3.17;1.03;;;;;;;-145.69;100.00;52610.75;5073234;28;20226;-81
2022/12/28 10:08:30;;;;;;;2.03;0.90;;;;;;;-145.69;100.00;52612.72;5072884;28;20222;-80
2022/12/28 10:11:02;;;;;;;1.43;1.10;;;;;;;-145.69;100.00;52622.63;5072889;28;20596;-80
2022/12/28 10:13:36;;;;;;;4.23;1.30;;;;;;;-145.69;100.00;52634.50;5069604;28;20209;-80
2022/12/28 10:16:04;;;;;;;3.93;1.00;;;;;;;-145.69;100.00;52612.72;5073097;28;20206;-80
2022/12/28 10:18:31;;;;;;;1.10;0.73;;;;;;;-145.69;100.00;52610.75;5072985;28;20225;-79
2022/12/28 10:20:59;;;;;;;4.43;1.50;;;;;;;-145.69;100.00;52614.72;5072812;28;20209;-80
2022/12/28 10:23:30;;;;;;;5.13;1.60;;;;;;;-145.69;100.00;52634.50;5072306;28;20662;-80
2022/12/28 10:26:01;;;;;;;3.13;1.10;;;;;;;-145.69;100.00;52594.91;5072982;28;20206;-80
2022/12/28 10:28:33;;;;;;;3.20;1.00;;;;;;;-145.69;100.00;52610.75;5072794;28;20276;-80
2022/12/28 10:31:06;;;;;;;1.33;1.10;;;;;;;-145.69;100.00;52610.75;5072954;28;20202;-80
2022/12/28 10:33:32;;;;;;;1.87;1.10;;;;;;;-145.69;100.00;52624.59;5072411;28;20204;-80
2022/12/28 10:36:00;;;;;;;2.80;1.10;;;;;;;-145.69;100.00;52569.16;5072207;28;20199;-80
2022/12/28 10:38:29;;;;;;;2.23;1.30;;;;;;;-145.69;100.00;52606.78;5072487;28;20226;-80
2022/12/28 10:41:00;;;;;;;4.37;1.30;;;;;;;-145.69;100.00;52608.75;5072641;28;20210;-79
2022/12/28 10:43:29;;;;;;;2.33;1.40;;;;;;;-145.69;100.00;52586.97;5072532;28;20293;-80
2022/12/28 10:45:57;;;;;;;2.00;1.20;;;;;;;-145.69;100.00;52620.66;5075329;28;20202;-80
2022/12/28 10:48:27;;;;;;;3.20;1.47;;;;;;;-145.69;100.00;52583.00;5076663;28;20194;-80
2022/12/28 10:50:56;;;;;;;2.93;1.23;;;;;;;-145.69;100.00;52586.97;5076437;28;20206;-80
2022/12/28 10:53:30;;;;;;;4.50;1.40;;;;;;;-145.69;100.00;52602.81;5076336;28;20214;-80
2022/12/28 10:56:06;;;;;;;2.10;1.20;;;;;;;-145.69;100.00;52614.72;5076377;28;20691;-80
2022/12/28 10:58:33;;;;;;;3.17;1.37;;;;;;;-145.69;100.00;52602.81;5076350;28;20592;-79
2022/12/28 11:01:03;;;;;;;1.30;0.90;;;;;;;-145.69;100.00;52604.81;5076330;28;20207;-80
2022/12/28 11:03:34;;;;;;;3.67;1.20;;;;;;;-145.69;100.00;52563.22;5075906;28;20676;-80
2022/12/28 11:06:16;;;;;;;6.87;1.33;;;;;;;-145.69;100.00;52561.22;5075975;28;20187;-79
2022/12/28 11:08:45;;;;;;;1.60;1.10;;;;;;;-145.69;100.00;52634.50;5076754;28;20254;-79
2022/12/28 11:11:20;;;;;;;1.80;1.27;;;;;;;-145.69;100.00;52614.72;5076059;28;20194;-80
2022/12/28 11:13:51;;;;;;;1.43;1.17;;;;;;;-145.69;100.00;52610.75;5076140;28;20599;-79
2022/12/28 11:16:18;;;;;;;2.30;1.53;;;;;;;-145.69;100.00;52577.06;5075120;28;20597;-79
2022/12/28 11:18:44;;;;;;;3.97;1.60;;;;;;;-145.69;100.00;52598.84;5076089;28;20682;-79
2022/12/28 11:21:18;;;;;;;2.85;1.40;;;;;;;-145.69;100.00;52616.69;5074040;28;20512;-79
2022/12/28 11:23:46;;;;;;;2.93;1.73;;;;;;;-145.69;100.00;52598.84;5075471;28;20684;-79
2022/12/28 11:26:13;;;;;;;3.07;1.37;;;;;;;-145.69;100.00;52571.13;5075319;28;20199;-79
2022/12/28 11:28:41;;;;;;;2.77;1.20;;;;;;;-145.69;100.00;52575.09;5075245;28;20191;-79
2022/12/28 11:31:14;;;;;;;2.53;1.20;;;;;;;-145.69;100.00;52598.84;5073199;28;20244;-79
2022/12/28 11:33:43;;;;;;;1.33;1.10;;;;;;;-145.69;100.00;52575.09;5075891;28;20569;-78
2022/12/28 11:36:15;;;;;;;4.33;1.17;;;;;;;-145.69;100.00;52569.16;5074864;28;20653;-80
2022/12/28 11:38:43;;;;;;;2.03;1.00;;;;;;;-145.69;100.00;52583.00;5075685;28;20199;-80
2022/12/28 11:41:31;;;;;;;1.50;1.10;;;;;;;-145.69;100.00;52586.97;5075025;28;20724;-78
2022/12/28 11:44:00;;;;;;;1.40;1.00;;;;;;;-145.69;100.00;52592.91;5075637;28;20206;-79
2022/12/28 11:46:59;;;;;;;3.80;1.13;;;;;;;-145.69;100.00;52583.00;5074853;28;20198;-79